Time;durP1;ratioP1;P1;durP2;ratioP2;P2;SDS_P1;SDS_P2;PMS_P1;PMS_P2;Temp;Humidity;BMP_temperature;BMP_pressure;BME280_temperature;BME280_humidity;BME280_pressure;Samples;Min_cycle;Max_cycle;Signal;HPM_P1;HPM_P2
2020/12/15 00:00:08;;;;;;;5.18;3.60;;;;;;;8.04;95.58;100339.66;4984409;28;20049;-84
2020/12/15 00:02:34;;;;;;;5.93;3.83;;;;;;;8.06;95.40;100347.53;4993340;28;20042;-87
2020/12/15 00:04:59;;;;;;;6.45;3.80;;;;;;;8.04;95.38;100354.88;5011300;28;20042;-87
2020/12/15 00:07:25;;;;;;;5.75;3.50;;;;;;;8.05;94.62;100353.88;4991903;28;20120;-87
2020/12/15 00:09:50;;;;;;;7.20;4.05;;;;;;;8.07;94.15;100357.22;4990023;28;20400;-85
2020/12/15 00:12:16;;;;;;;5.88;3.70;;;;;;;8.08;93.72;100353.53;4975087;28;20050;-82
2020/12/15 00:14:48;;;;;;;6.13;3.47;;;;;;;8.07;94.00;100344.69;5001209;28;20404;-87
2020/12/15 00:17:19;;;;;;;6.05;3.80;;;;;;;8.09;93.86;100344.56;4989951;28;20041;-87
2020/12/15 00:19:46;;;;;;;7.90;3.78;;;;;;;8.06;94.11;100332.34;4985499;28;20164;-88
2020/12/15 00:22:11;;;;;;;5.80;3.25;;;;;;;8.05;93.58;100346.69;4985216;28;20455;-85
2020/12/15 00:24:38;;;;;;;4.30;3.05;;;;;;;8.04;93.69;100339.66;4970333;28;20038;-86
2020/12/15 00:27:04;;;;;;;5.57;3.08;;;;;;;8.06;93.32;100342.19;4991735;28;20081;-85
2020/12/15 00:29:30;;;;;;;5.38;3.20;;;;;;;8.07;92.50;100336.69;4987837;28;20037;-89
2020/12/15 00:32:03;;;;;;;5.25;3.17;;;;;;;8.10;91.85;100333.69;5002865;28;20057;-82
2020/12/15 00:34:34;;;;;;;4.20;2.90;;;;;;;8.08;92.06;100330.31;4987150;28;20065;-82
2020/12/15 00:37:00;;;;;;;5.18;2.83;;;;;;;8.10;91.06;100322.16;4974151;28;20457;-81
2020/12/15 00:39:25;;;;;;;5.18;2.90;;;;;;;8.11;91.19;100323.81;4972699;28;20036;-88
2020/12/15 00:41:52;;;;;;;4.20;2.88;;;;;;;8.12;90.75;100330.88;4981765;28;20038;-88
2020/12/15 00:44:25;;;;;;;5.35;2.80;;;;;;;8.12;91.10;100337.06;4999138;28;20444;-88
2020/12/15 00:46:54;;;;;;;4.55;3.17;;;;;;;8.10;91.40;100339.03;4992992;28;20038;-92
2020/12/15 00:49:20;;;;;;;6.70;3.10;;;;;;;8.10;90.91;100333.69;5010905;28;20049;-83
2020/12/15 00:51:52;;;;;;;4.93;3.10;;;;;;;8.06;92.22;100347.53;4995181;28;20078;-87
2020/12/15 00:54:17;;;;;;;5.00;2.95;;;;;;;8.04;92.12;100344.19;4992591;28;20095;-85
2020/12/15 00:56:43;;;;;;;4.55;3.10;;;;;;;8.04;92.31;100349.53;4992781;28;20045;-88
2020/12/15 00:59:16;;;;;;;4.65;2.78;;;;;;;8.01;93.02;100349.84;4987611;28;20431;-88
2020/12/15 01:01:50;;;;;;;4.90;2.90;;;;;;;7.96;93.51;100341.47;4993042;28;20502;-85
2020/12/15 01:04:16;;;;;;;5.38;3.40;;;;;;;7.93;94.78;100349.78;5002923;28;20030;-86
2020/12/15 01:06:42;;;;;;;6.93;3.53;;;;;;;7.84;95.65;100344.41;4975650;28;20401;-88
2020/12/15 01:09:14;;;;;;;5.25;3.50;;;;;;;7.76;96.57;100347.00;4992665;28;20188;-84
2020/12/15 01:11:40;;;;;;;5.28;3.17;;;;;;;7.73;97.43;100349.16;4979024;28;20064;-88
2020/12/15 01:14:05;;;;;;;6.72;3.72;;;;;;;7.68;97.78;100344.28;4973297;28;20484;-89
2020/12/15 01:16:33;;;;;;;5.85;3.30;;;;;;;7.64;98.25;100348.28;4975241;28;20056;-89
2020/12/15 01:18:58;;;;;;;6.45;4.00;;;;;;;7.59;99.01;100342.56;4988729;28;20030;-86
2020/12/15 01:21:29;;;;;;;6.65;3.83;;;;;;;7.55;99.26;100338.53;4986282;28;20046;-85
2020/12/15 01:23:58;;;;;;;5.68;3.30;;;;;;;7.53;99.62;100337.84;4992250;28;20096;-88
2020/12/15 01:26:25;;;;;;;6.82;3.92;;;;;;;7.51;99.79;100342.50;5008303;28;20054;-87
2020/12/15 01:28:51;;;;;;;5.85;3.70;;;;;;;7.49;99.58;100344.50;5004627;28;20124;-83
2020/12/15 01:31:29;;;;;;;6.82;3.75;;;;;;;7.47;99.70;100341.97;5002243;28;20078;-89
2020/12/15 01:33:57;;;;;;;5.57;3.83;;;;;;;7.46;99.61;100343.81;4988239;28;20035;-87
2020/12/15 01:36:30;;;;;;;5.63;3.63;;;;;;;7.45;99.93;100339.47;4990648;28;20097;-83
2020/12/15 01:38:56;;;;;;;4.30;3.33;;;;;;;7.44;100.00;100337.78;5010238;28;20273;-87
2020/12/15 01:41:29;;;;;;;6.50;3.75;;;;;;;7.43;100.00;100336.09;4989633;28;20054;-86
2020/12/15 01:44:02;;;;;;;4.07;2.92;;;;;;;7.42;100.00;100337.09;4999788;28;20074;-86
2020/12/15 01:46:29;;;;;;;8.05;3.92;;;;;;;7.44;99.77;100326.25;5001654;28;20142;-89
2020/12/15 01:48:56;;;;;;;5.68;3.47;;;;;;;7.45;100.00;100322.59;5009605;28;20036;-84
2020/12/15 01:51:29;;;;;;;5.10;3.33;;;;;;;7.44;99.48;100321.75;4976311;28;20038;-91
2020/12/15 01:54:00;;;;;;;7.40;3.60;;;;;;;7.46;99.43;100318.94;4993595;28;20037;-86
2020/12/15 01:56:29;;;;;;;5.35;3.58;;;;;;;7.44;99.51;100331.59;4992743;28;20044;-82
2020/12/15 01:58:57;;;;;;;5.57;3.80;;;;;;;7.45;99.33;100328.78;5007326;28;20117;-87
2020/12/15 02:01:24;;;;;;;5.72;3.58;;;;;;;7.44;99.45;100324.41;4989882;28;20060;-89
2020/12/15 02:03:53;;;;;;;5.30;3.38;;;;;;;7.47;99.63;100325.94;4976816;28;20584;-89
2020/12/15 02:06:19;;;;;;;4.60;3.10;;;;;;;7.48;99.36;100324.97;5006938;28;20042;-88
2020/12/15 02:08:46;;;;;;;5.70;3.60;;;;;;;7.47;99.48;100316.09;5006138;28;20069;-83
2020/12/15 02:11:13;;;;;;;6.55;3.70;;;;;;;7.50;99.58;100314.13;4974709;28;20214;-84
2020/12/15 02:13:40;;;;;;;7.85;4.15;;;;;;;7.49;99.75;100323.97;5002622;28;20049;-89
2020/12/15 02:16:09;;;;;;;6.40;3.50;;;;;;;7.52;99.61;100320.16;5002533;28;20041;-86
2020/12/15 02:18:35;;;;;;;6.50;4.03;;;;;;;7.53;99.52;100324.50;4973686;28;20069;-90
2020/12/15 02:21:06;;;;;;;5.68;3.75;;;;;;;7.54;99.95;100327.03;5007291;28;20093;-88
2020/12/15 02:23:34;;;;;;;6.88;3.78;;;;;;;7.55;100.00;100322.50;4988267;28;20074;-87
2020/12/15 02:26:06;;;;;;;6.57;3.43;;;;;;;7.53;100.00;100324.50;4991811;28;20037;-84
2020/12/15 02:28:32;;;;;;;8.18;4.00;;;;;;;7.52;100.00;100328.16;4975748;28;20488;-83
2020/12/15 02:30:57;;;;;;;5.95;3.58;;;;;;;7.51;100.00;100324.66;4991502;28;20033;-86
2020/12/15 02:33:24;;;;;;;6.13;3.25;;;;;;;7.51;100.00;100331.81;4999264;28;20080;-87
2020/12/15 02:35:51;;;;;;;5.55;3.58;;;;;;;7.51;100.00;100321.13;4997069;28;20093;-91
2020/12/15 02:38:16;;;;;;;5.32;3.30;;;;;;;7.49;100.00;100321.28;4991370;28;20042;-87
2020/12/15 02:40:43;;;;;;;5.30;3.30;;;;;;;7.50;100.00;100324.81;5009910;28;20534;-84
2020/12/15 02:43:08;;;;;;;5.40;3.67;;;;;;;7.49;100.00;100323.13;4989360;28;20116;-86
2020/12/15 02:45:33;;;;;;;7.13;4.03;;;;;;;7.46;100.00;100325.13;4985069;28;20080;-85
2020/12/15 02:48:01;;;;;;;7.05;3.60;;;;;;;7.44;100.00;100312.91;5003858;28;20384;-87
2020/12/15 02:50:32;;;;;;;7.18;4.38;;;;;;;7.43;100.00;100312.06;4972461;28;20053;-86
2020/12/15 02:52:59;;;;;;;7.43;3.50;;;;;;;7.39;100.00;100316.06;5003538;28;20072;-88
2020/12/15 02:55:25;;;;;;;6.28;4.10;;;;;;;7.38;100.00;100301.03;4988761;28;20061;-83
2020/12/15 02:57:51;;;;;;;5.97;3.72;;;;;;;7.37;100.00;100302.03;4975161;28;20431;-85
2020/12/15 03:00:19;;;;;;;7.15;4.28;;;;;;;7.35;100.00;100304.00;5005099;28;20048;-88
2020/12/15 03:02:46;;;;;;;5.93;3.70;;;;;;;7.33;100.00;100292.63;4975387;28;20420;-84
2020/12/15 03:05:12;;;;;;;7.35;4.20;;;;;;;7.33;100.00;100271.28;4993637;28;20038;-84
2020/12/15 03:07:39;;;;;;;8.35;4.38;;;;;;;7.32;100.00;100253.59;5002570;28;20048;-85
2020/12/15 03:10:06;;;;;;;7.78;4.55;;;;;;;7.33;100.00;100244.59;4977582;28;20045;-90
2020/12/15 03:12:32;;;;;;;8.15;5.25;;;;;;;7.30;100.00;100292.94;5005772;28;20373;-87
2020/12/15 03:14:58;;;;;;;6.53;4.70;;;;;;;7.32;100.00;100327.50;4993125;28;20084;-86
2020/12/15 03:17:23;;;;;;;8.07;5.00;;;;;;;7.31;100.00;100334.69;4983997;28;20041;-86
2020/12/15 03:19:48;;;;;;;7.22;5.55;;;;;;;7.31;100.00;100341.81;4994511;28;20065;-86
2020/12/15 03:22:14;;;;;;;7.07;4.85;;;;;;;7.30;100.00;100340.16;4972660;28;20042;-86
2020/12/15 03:24:40;;;;;;;9.50;5.93;;;;;;;7.30;100.00;100346.31;4990688;28;20172;-86
2020/12/15 03:27:05;;;;;;;9.38;5.85;;;;;;;7.32;100.00;100348.88;5010062;28;20049;-86
2020/12/15 03:29:31;;;;;;;9.38;5.35;;;;;;;7.28;100.00;100345.66;4973151;28;20136;-84
2020/12/15 03:31:57;;;;;;;9.95;5.75;;;;;;;7.28;100.00;100356.34;5009492;28;20392;-88
2020/12/15 03:34:23;;;;;;;9.75;5.90;;;;;;;7.28;100.00;100345.66;4971815;28;20050;-88
2020/12/15 03:36:51;;;;;;;8.55;5.40;;;;;;;7.26;100.00;100355.66;5000862;28;20095;-86
2020/12/15 03:39:17;;;;;;;9.85;6.65;;;;;;;7.26;100.00;100350.31;4977299;28;20184;-85
2020/12/15 03:41:42;;;;;;;10.05;6.68;;;;;;;7.24;100.00;100353.13;4977402;28;20141;-86
2020/12/15 03:44:08;;;;;;;8.63;5.93;;;;;;;7.24;100.00;100358.47;4973397;28;20389;-88
2020/12/15 03:46:34;;;;;;;9.20;6.38;;;;;;;7.25;100.00;100364.66;4991587;28;20128;-87
2020/12/15 03:49:00;;;;;;;9.90;6.70;;;;;;;7.25;100.00;100370.00;4974492;28;20528;-83
2020/12/15 03:51:26;;;;;;;9.85;5.80;;;;;;;7.24;100.00;100365.63;5004424;28;20089;-86
2020/12/15 03:53:51;;;;;;;9.88;6.50;;;;;;;7.23;100.00;100366.63;4986594;28;20034;-85
2020/12/15 03:56:16;;;;;;;8.95;6.82;;;;;;;7.24;100.00;100357.63;4998166;28;20042;-86
2020/12/15 03:58:42;;;;;;;10.20;6.80;;;;;;;7.24;100.00;100362.97;4955400;28;20042;-85
2020/12/15 04:01:08;;;;;;;11.15;7.00;;;;;;;7.22;100.00;100354.25;4992706;28;20053;-86
2020/12/15 04:03:36;;;;;;;9.68;6.55;;;;;;;7.22;100.00;100356.94;4974643;28;20046;-86
2020/12/15 04:06:01;;;;;;;13.50;7.07;;;;;;;7.20;100.00;100356.25;4981259;28;20037;-85
2020/12/15 04:08:27;;;;;;;10.27;7.60;;;;;;;7.21;100.00;100360.59;4990079;28;20500;-87
2020/12/15 04:10:53;;;;;;;10.68;7.38;;;;;;;7.21;100.00;100360.59;4986995;28;20536;-84
2020/12/15 04:13:24;;;;;;;12.07;7.82;;;;;;;7.21;100.00;100369.44;4984488;28;20041;-86
2020/12/15 04:15:53;;;;;;;10.60;7.35;;;;;;;7.20;100.00;100358.94;4971297;28;20050;-88
2020/12/15 04:18:19;;;;;;;11.98;7.80;;;;;;;7.21;100.00;100357.94;5005141;28;20054;-85
2020/12/15 04:20:44;;;;;;;11.40;8.88;;;;;;;7.21;100.00;100363.28;4977844;28;20056;-85
2020/12/15 04:23:11;;;;;;;11.63;7.90;;;;;;;7.20;100.00;100364.28;4973411;28;20045;-84
2020/12/15 04:25:50;;;;;;;11.88;8.50;;;;;;;7.19;100.00;100362.56;4991840;28;20192;-85
2020/12/15 04:28:17;;;;;;;13.52;8.13;;;;;;;7.19;100.00;100359.91;4991433;28;20121;-83
2020/12/15 04:30:44;;;;;;;10.32;7.43;;;;;;;7.18;100.00;100363.56;4995082;28;20045;-89
2020/12/15 04:33:10;;;;;;;13.55;8.32;;;;;;;7.18;100.00;100368.91;5013308;28;20400;-85
2020/12/15 04:35:35;;;;;;;10.73;8.50;;;;;;;7.20;100.00;100370.44;5014324;28;20041;-85
2020/12/15 04:38:00;;;;;;;12.00;7.53;;;;;;;7.20;100.00;100375.78;4982386;28;20046;-84
2020/12/15 04:40:26;;;;;;;13.48;8.02;;;;;;;7.21;100.00;100381.94;4992732;28;20498;-86
2020/12/15 04:42:53;;;;;;;11.98;8.43;;;;;;;7.22;100.00;100381.81;4999258;28;20558;-84
2020/12/15 04:45:25;;;;;;;13.07;7.78;;;;;;;7.21;100.00;100384.63;5003852;28;20037;-87
2020/12/15 04:48:08;;;;;;;12.02;7.32;;;;;;;7.22;100.00;100380.94;4972851;28;20049;-89
2020/12/15 04:50:37;;;;;;;14.43;8.35;;;;;;;7.22;100.00;100388.94;4990168;28;20061;-89
2020/12/15 04:53:17;;;;;;;13.23;8.65;;;;;;;7.23;100.00;100390.66;5010570;28;20175;-88
2020/12/15 04:55:49;;;;;;;11.00;7.40;;;;;;;7.23;100.00;100390.66;4993900;28;20064;-87
2020/12/15 04:58:20;;;;;;;11.50;8.05;;;;;;;7.23;100.00;100396.81;4993109;28;20473;-91
2020/12/15 05:00:50;;;;;;;11.27;8.80;;;;;;;7.24;100.00;100392.31;4994679;28;20459;-88
2020/12/15 05:03:31;;;;;;;13.95;8.50;;;;;;;7.23;100.00;100393.31;5008959;28;20495;-84
2020/12/15 05:06:00;;;;;;;12.27;8.07;;;;;;;7.24;100.00;100405.66;5004993;28;20116;-89
2020/12/15 05:08:26;;;;;;;;;;;;;;;7.26;100.00;100402.84;4977647;28;20037;-85
2020/12/15 05:10:53;;;;;;;12.25;8.45;;;;;;;7.19;100.00;100397.28;5006594;28;19922;-85
2020/12/15 05:13:18;;;;;;;10.93;8.25;;;;;;;7.20;100.00;100405.13;4989275;28;20049;-87
2020/12/15 05:15:44;;;;;;;11.98;8.75;;;;;;;7.23;100.00;100396.00;4984714;28;20042;-86
2020/12/15 05:18:09;;;;;;;13.15;8.43;;;;;;;7.24;100.00;100403.00;4988921;28;20043;-84
2020/12/15 05:20:34;;;;;;;14.73;8.48;;;;;;;7.26;100.00;100403.69;4985886;28;20113;-84
2020/12/15 05:23:02;;;;;;;11.90;8.88;;;;;;;7.27;100.00;100404.53;4987090;28;20489;-83
2020/12/15 05:25:34;;;;;;;10.23;8.25;;;;;;;7.27;100.00;100400.03;4994756;28;20121;-86
2020/12/15 05:28:09;;;;;;;11.35;8.35;;;;;;;7.27;100.00;100400.03;4994746;28;20065;-85
2020/12/15 05:30:35;;;;;;;13.05;8.10;;;;;;;7.28;100.00;100401.72;4993533;28;20049;-88
2020/12/15 05:33:01;;;;;;;13.18;8.93;;;;;;;7.28;100.00;100396.38;4990703;28;20482;-84
2020/12/15 05:35:35;;;;;;;11.02;8.25;;;;;;;7.29;100.00;100395.38;4976861;28;20033;-83
2020/12/15 05:38:04;;;;;;;12.02;7.95;;;;;;;7.30;100.00;100393.53;5002170;28;20042;-86
2020/12/15 05:40:35;;;;;;;12.27;7.78;;;;;;;7.29;100.00;100392.72;4966124;28;20038;-85
2020/12/15 05:43:03;;;;;;;12.63;9.18;;;;;;;7.30;100.00;100396.22;4999154;28;20120;-83
2020/12/15 05:45:33;;;;;;;12.38;8.95;;;;;;;7.29;100.00;100394.53;5005514;28;20141;-85
2020/12/15 05:48:08;;;;;;;12.50;9.15;;;;;;;7.28;100.00;100396.38;5007027;28;20034;-88
2020/12/15 05:50:35;;;;;;;13.55;9.13;;;;;;;7.27;100.00;100397.34;5007895;28;20080;-86
2020/12/15 05:53:03;;;;;;;13.50;8.95;;;;;;;7.27;100.00;100388.50;4999247;28;20501;-86
2020/12/15 05:55:29;;;;;;;14.13;9.27;;;;;;;7.27;100.00;100394.69;4987424;28;20053;-84
2020/12/15 05:57:56;;;;;;;12.57;9.15;;;;;;;7.27;100.00;100394.69;5000160;28;20061;-84
2020/12/15 06:00:27;;;;;;;14.20;8.80;;;;;;;7.26;100.00;100387.69;4958774;28;20042;-84
2020/12/15 06:03:01;;;;;;;13.02;9.55;;;;;;;7.27;100.00;100399.19;5007305;28;20033;-87
2020/12/15 06:05:31;;;;;;;13.80;9.32;;;;;;;7.24;100.00;100390.47;5005313;28;20064;-84
2020/12/15 06:07:59;;;;;;;11.15;8.52;;;;;;;7.23;100.00;100391.50;4984459;28;20041;-83
2020/12/15 06:10:26;;;;;;;14.88;9.77;;;;;;;7.24;100.00;100395.00;4989109;28;20435;-86
2020/12/15 06:12:54;;;;;;;15.60;9.43;;;;;;;7.24;100.00;100389.66;4999581;28;20452;-84
2020/12/15 06:15:20;;;;;;;13.48;9.35;;;;;;;7.24;100.00;100400.31;4984534;28;20067;-85
2020/12/15 06:17:54;;;;;;;12.75;9.02;;;;;;;7.24;100.00;100390.47;4985736;28;20042;-85
2020/12/15 06:20:20;;;;;;;13.38;8.88;;;;;;;7.25;100.00;100394.03;5007043;28;20388;-83
2020/12/15 06:22:54;;;;;;;15.23;9.25;;;;;;;7.23;100.00;100398.66;4987368;28;20054;-86
2020/12/15 06:25:28;;;;;;;14.25;8.60;;;;;;;7.23;100.00;100394.16;5000779;28;20774;-86
2020/12/15 06:28:06;;;;;;;13.02;9.07;;;;;;;7.23;100.00;100390.66;5001481;28;20038;-83
2020/12/15 06:30:34;;;;;;;16.60;9.55;;;;;;;7.23;100.00;100379.97;4987305;28;20038;-87
2020/12/15 06:33:01;;;;;;;13.32;8.63;;;;;;;7.23;100.00;100387.97;4969941;28;20515;-86
2020/12/15 06:35:26;;;;;;;11.18;8.65;;;;;;;7.26;100.00;100387.69;4989063;28;20045;-84
2020/12/15 06:37:53;;;;;;;12.43;8.52;;;;;;;7.26;100.00;100387.69;4986965;28;20049;-87
2020/12/15 06:40:18;;;;;;;12.95;8.57;;;;;;;7.28;100.00;100399.06;5001468;28;20044;-89
2020/12/15 06:42:51;;;;;;;16.08;9.35;;;;;;;7.29;100.00;100395.38;4983265;28;20046;-86
2020/12/15 06:45:25;;;;;;;16.48;9.98;;;;;;;7.31;100.00;100390.72;4998489;28;20102;-85
2020/12/15 06:48:05;;;;;;;12.95;9.05;;;;;;;7.31;100.00;100385.41;4976973;28;20057;-84
2020/12/15 06:50:46;;;;;;;15.15;9.68;;;;;;;7.32;100.00;100381.72;4989259;28;20037;-88
2020/12/15 06:53:18;;;;;;;12.13;9.43;;;;;;;7.34;100.00;100385.09;5001022;28;20070;-85
2020/12/15 06:55:45;;;;;;;14.27;9.10;;;;;;;7.33;100.00;100391.41;4996619;28;20409;-86
2020/12/15 06:58:21;;;;;;;13.15;9.65;;;;;;;7.34;100.00;100398.44;4980166;28;20081;-87
2020/12/15 07:00:46;;;;;;;14.60;9.70;;;;;;;7.35;100.00;100400.09;5008057;28;20048;-87
2020/12/15 07:03:12;;;;;;;12.23;9.63;;;;;;;7.37;100.00;100408.81;4985825;28;20054;-86
2020/12/15 07:05:38;;;;;;;14.48;9.77;;;;;;;7.39;100.00;100411.31;4991922;28;20046;-84
2020/12/15 07:08:14;;;;;;;16.42;9.30;;;;;;;7.40;100.00;100416.50;4985780;28;20065;-87
2020/12/15 07:10:43;;;;;;;14.70;10.18;;;;;;;7.41;100.00;100412.00;5003434;28;20034;-86
2020/12/15 07:13:11;;;;;;;;;;;;;;;7.42;100.00;100417.19;4970876;28;20033;-85
2020/12/15 07:15:37;;;;;;;14.60;9.20;;;;;;;7.35;100.00;100416.13;5005460;28;19914;-87
2020/12/15 07:18:04;;;;;;;14.55;9.38;;;;;;;7.36;100.00;100412.44;5008753;28;20447;-88
2020/12/15 07:20:30;;;;;;;12.93;8.70;;;;;;;7.39;100.00;100417.50;4976418;28;20038;-86
2020/12/15 07:22:56;;;;;;;15.35;9.88;;;;;;;7.42;100.00;100413.66;4987969;28;20038;-85
2020/12/15 07:25:23;;;;;;;15.60;9.95;;;;;;;7.43;100.00;100421.53;5000077;28;20108;-87
2020/12/15 07:27:50;;;;;;;15.95;9.60;;;;;;;7.43;100.00;100418.88;4999425;28;20096;-85
2020/12/15 07:30:20;;;;;;;14.95;9.90;;;;;;;7.44;100.00;100415.19;4979961;28;20045;-89
2020/12/15 07:32:48;;;;;;;17.50;9.63;;;;;;;7.45;100.00;100419.56;4993710;28;20257;-87
2020/12/15 07:35:20;;;;;;;13.68;9.45;;;;;;;7.44;100.00;100423.19;4995827;28;20096;-85
2020/12/15 07:37:48;;;;;;;17.08;10.45;;;;;;;7.45;100.00;100424.91;4973973;28;20042;-87
2020/12/15 07:40:17;;;;;;;15.15;9.18;;;;;;;7.45;100.00;100424.03;4988934;28;20104;-89
2020/12/15 07:42:58;;;;;;;13.50;9.40;;;;;;;7.45;100.00;100424.91;4997229;28;20535;-86
2020/12/15 07:45:26;;;;;;;17.52;9.95;;;;;;;7.47;100.00;100430.06;4985454;28;20049;-85
2020/12/15 07:47:53;;;;;;;14.70;10.20;;;;;;;7.46;100.00;100431.91;5003384;28;20115;-89
2020/12/15 07:50:29;;;;;;;15.52;10.48;;;;;;;7.45;100.00;100430.25;4972844;28;20034;-88
2020/12/15 07:52:56;;;;;;;14.85;9.98;;;;;;;7.46;100.00;100428.41;5001369;28;20050;-87
2020/12/15 07:55:23;;;;;;;18.15;11.65;;;;;;;7.46;100.00;100434.56;4999968;28;20489;-84
2020/12/15 07:57:50;;;;;;;17.25;10.65;;;;;;;7.45;100.00;100424.03;5006438;28;20066;-86
2020/12/15 08:00:18;;;;;;;16.33;11.32;;;;;;;7.46;100.00;100431.91;4986994;28;20123;-86
2020/12/15 08:02:44;;;;;;;16.20;11.52;;;;;;;7.47;100.00;100422.06;4957475;28;20065;-86
2020/12/15 08:05:20;;;;;;;16.23;11.40;;;;;;;7.49;100.00;100430.75;4992191;28;20414;-85
2020/12/15 08:07:51;;;;;;;17.10;11.90;;;;;;;7.50;100.00;100431.59;5004301;28;20037;-88
2020/12/15 08:10:26;;;;;;;19.38;11.77;;;;;;;7.50;100.00;100440.44;5001620;28;20078;-83
2020/12/15 08:12:55;;;;;;;20.40;11.80;;;;;;;7.52;100.00;100445.66;4983815;28;20065;-84
2020/12/15 08:15:21;;;;;;;19.95;12.13;;;;;;;7.53;100.00;100442.81;4988092;28;20054;-88
2020/12/15 08:17:48;;;;;;;19.30;11.30;;;;;;;7.53;100.00;100441.97;4989786;28;20057;-84
2020/12/15 08:20:17;;;;;;;19.88;12.88;;;;;;;7.54;100.00;100452.50;5001364;28;20044;-89
2020/12/15 08:22:45;;;;;;;18.88;12.82;;;;;;;7.56;100.00;100445.16;4991258;28;20500;-86
2020/12/15 08:25:12;;;;;;;17.80;12.32;;;;;;;7.56;100.00;100441.66;4976228;28;20045;-88
2020/12/15 08:27:38;;;;;;;17.30;11.55;;;;;;;7.57;100.00;100443.38;4984401;28;20042;-87
2020/12/15 08:30:20;;;;;;;18.48;12.70;;;;;;;7.58;100.00;100445.03;4999030;28;20124;-85
2020/12/15 08:32:53;;;;;;;17.92;11.70;;;;;;;7.59;100.00;100446.69;4985833;28;20069;-88
2020/12/15 08:35:24;;;;;;;19.60;12.98;;;;;;;7.60;100.00;100459.91;5007117;28;20062;-87
2020/12/15 08:37:56;;;;;;;17.75;12.15;;;;;;;7.61;100.00;100461.56;5008652;28;20060;-85
2020/12/15 08:40:22;;;;;;;19.73;12.75;;;;;;;7.64;100.00;100468.44;5008107;28;20129;-85
2020/12/15 08:43:00;;;;;;;20.25;13.10;;;;;;;7.65;100.00;100467.44;4987493;28;20121;-89
2020/12/15 08:45:26;;;;;;;21.77;13.90;;;;;;;7.65;100.00;100479.00;5002474;28;20389;-85
2020/12/15 08:47:54;;;;;;;20.40;13.60;;;;;;;7.67;100.00;100481.50;4988749;28;20053;-86
2020/12/15 08:50:21;;;;;;;21.05;14.07;;;;;;;7.68;100.00;100475.16;4986375;28;20100;-87
2020/12/15 08:52:48;;;;;;;18.80;13.02;;;;;;;7.69;100.00;100471.50;4976900;28;20053;-83
2020/12/15 08:55:14;;;;;;;25.92;15.05;;;;;;;7.70;100.00;100473.16;4970627;28;20188;-87
2020/12/15 08:57:39;;;;;;;22.23;14.48;;;;;;;7.70;100.00;100486.53;5004085;28;20129;-84
2020/12/15 09:00:16;;;;;;;24.13;14.95;;;;;;;7.72;100.00;100489.91;4987486;28;20192;-86
2020/12/15 09:02:43;;;;;;;24.35;16.30;;;;;;;7.73;100.00;100488.06;4989670;28;20161;-84
2020/12/15 09:05:16;;;;;;;25.58;16.95;;;;;;;7.75;100.00;100478.06;4946235;28;20108;-86
2020/12/15 09:07:42;;;;;;;26.40;16.83;;;;;;;7.76;100.00;100493.94;4973830;28;20053;-85
2020/12/15 09:10:16;;;;;;;25.73;15.77;;;;;;;7.78;100.00;100496.47;4999657;28;20038;-84
2020/12/15 09:12:48;;;;;;;21.73;15.63;;;;;;;7.80;100.00;100491.81;4970442;28;20676;-87
2020/12/15 09:15:14;;;;;;;22.83;17.00;;;;;;;7.79;100.00;100501.63;4997740;28;20111;-89
2020/12/15 09:17:40;;;;;;;27.73;18.02;;;;;;;7.81;100.00;100493.47;4999475;28;20551;-86
2020/12/15 09:20:08;;;;;;;25.15;16.63;;;;;;;7.79;100.00;100504.31;4982474;28;20108;-86
2020/12/15 09:22:37;;;;;;;26.58;18.40;;;;;;;7.80;100.00;100507.84;4972677;28;20046;-86
2020/12/15 09:25:12;;;;;;;26.90;18.85;;;;;;;7.81;100.00;100510.34;4985373;28;20540;-84
2020/12/15 09:27:44;;;;;;;25.42;17.45;;;;;;;7.81;100.00;100525.53;4983690;28;20492;-85
2020/12/15 09:30:10;;;;;;;27.50;18.67;;;;;;;7.82;100.00;100524.53;4989360;28;20041;-85
2020/12/15 09:32:35;;;;;;;29.42;20.83;;;;;;;7.83;100.00;100529.72;4973369;28;20042;-87
2020/12/15 09:35:01;;;;;;;32.38;22.08;;;;;;;7.84;100.00;100535.91;4988119;28;20110;-85
2020/12/15 09:37:27;;;;;;;33.90;23.63;;;;;;;7.85;100.00;100537.56;4985017;28;20385;-89
2020/12/15 09:39:52;;;;;;;31.10;23.58;;;;;;;7.85;100.00;100532.22;4973129;28;20042;-86
2020/12/15 09:42:20;;;;;;;31.70;23.35;;;;;;;7.85;100.00;100543.78;4984420;28;20108;-89
2020/12/15 09:44:47;;;;;;;34.20;22.67;;;;;;;7.86;100.00;100548.13;4982994;28;20074;-86
2020/12/15 09:47:13;;;;;;;35.60;22.92;;;;;;;7.87;100.00;100547.13;4989783;28;20049;-88
2020/12/15 09:49:39;;;;;;;33.88;25.48;;;;;;;7.87;100.00;100541.78;4972727;28;20033;-86
2020/12/15 09:52:05;;;;;;;34.50;25.67;;;;;;;7.88;100.00;100538.13;4981160;28;20404;-87
2020/12/15 09:54:35;;;;;;;38.55;25.15;;;;;;;7.88;100.00;100538.13;4985484;28;20052;-86
2020/12/15 09:57:02;;;;;;;39.80;25.17;;;;;;;7.89;100.00;100534.47;5000645;28;20076;-86
2020/12/15 09:59:28;;;;;;;37.10;25.40;;;;;;;7.90;100.00;100533.47;4986557;28;20068;-87
2020/12/15 10:01:54;;;;;;;42.38;29.88;;;;;;;7.93;100.00;100536.81;4984459;28;20054;-87
2020/12/15 10:04:19;;;;;;;38.70;25.50;;;;;;;7.94;100.00;100550.03;5003881;28;20512;-85
2020/12/15 10:06:47;;;;;;;40.72;27.85;;;;;;;7.97;100.00;100543.53;5001600;28;20050;-86
2020/12/15 10:09:15;;;;;;;41.90;27.92;;;;;;;8.00;100.00;100548.56;5004630;28;20042;-87
2020/12/15 10:11:43;;;;;;;43.13;29.20;;;;;;;8.02;100.00;100551.94;4989827;28;20042;-85
2020/12/15 10:14:09;;;;;;;42.63;28.27;;;;;;;8.02;100.00;100557.28;5000218;28;20037;-84
2020/12/15 10:16:34;;;;;;;44.95;29.50;;;;;;;8.05;100.00;100554.28;4990204;28;20050;-85
2020/12/15 10:19:00;;;;;;;40.50;28.77;;;;;;;8.06;100.00;100553.31;4970401;28;20046;-85
2020/12/15 10:21:25;;;;;;;42.05;27.95;;;;;;;8.07;100.00;100558.50;4991649;28;20560;-88
2020/12/15 10:23:51;;;;;;;44.00;30.35;;;;;;;8.09;100.00;100555.69;4985926;28;20042;-86
2020/12/15 10:26:27;;;;;;;45.78;30.77;;;;;;;8.11;100.00;100556.34;5007174;28;20045;-85
2020/12/15 10:28:53;;;;;;;44.10;30.15;;;;;;;8.11;100.00;100562.56;4998026;28;20050;-84
2020/12/15 10:31:18;;;;;;;45.20;31.27;;;;;;;8.12;100.00;100555.38;5010004;28;20037;-85
2020/12/15 10:33:44;;;;;;;44.65;32.13;;;;;;;8.13;100.00;100563.22;4972472;28;20611;-87
2020/12/15 10:36:12;;;;;;;46.20;30.05;;;;;;;8.14;100.00;100548.03;5000845;28;20042;-87
2020/12/15 10:38:39;;;;;;;47.00;30.15;;;;;;;8.15;100.00;100547.03;4996954;28;20040;-86
2020/12/15 10:41:05;;;;;;;46.33;29.27;;;;;;;8.16;100.00;100556.72;4989492;28;20045;-88
2020/12/15 10:43:31;;;;;;;48.17;31.52;;;;;;;8.16;100.00;100548.72;4986817;28;20041;-85
2020/12/15 10:45:58;;;;;;;44.75;30.17;;;;;;;8.17;100.00;100542.41;4981869;28;20041;-84
2020/12/15 10:48:25;;;;;;;50.03;33.05;;;;;;;8.19;100.00;100543.06;5001039;28;20050;-86
2020/12/15 10:50:51;;;;;;;50.38;31.77;;;;;;;8.18;100.00;100540.56;4999640;28;20049;-84
2020/12/15 10:53:18;;;;;;;52.97;34.33;;;;;;;8.19;100.00;100540.38;5006798;28;20060;-87
2020/12/15 10:55:48;;;;;;;48.72;31.08;;;;;;;8.19;100.00;100548.41;5017966;28;20042;-86
2020/12/15 10:58:13;;;;;;;44.00;29.17;;;;;;;8.20;100.00;100539.41;5025031;28;20050;-85
2020/12/15 11:00:38;;;;;;;46.55;32.22;;;;;;;8.24;100.00;100537.25;5009960;28;20046;-87
2020/12/15 11:03:04;;;;;;;51.83;33.72;;;;;;;8.26;100.00;100541.47;4991298;28;20308;-86
2020/12/15 11:05:29;;;;;;;54.00;35.28;;;;;;;8.26;100.00;100538.78;4976033;28;20405;-87
2020/12/15 11:07:57;;;;;;;51.70;31.33;;;;;;;8.27;100.00;100535.09;4988025;28;20121;-87
2020/12/15 11:10:23;;;;;;;49.53;30.97;;;;;;;8.26;100.00;100535.28;4986590;28;20054;-86
2020/12/15 11:12:52;;;;;;;53.33;33.90;;;;;;;8.27;100.00;100531.59;4990031;28;20045;-84
2020/12/15 11:15:19;;;;;;;53.83;33.63;;;;;;;8.28;100.00;100527.91;4975004;28;20120;-87
2020/12/15 11:17:44;;;;;;;58.35;36.55;;;;;;;8.29;100.00;100529.63;4987990;28;20049;-85
2020/12/15 11:20:10;;;;;;;56.25;34.33;;;;;;;8.30;100.00;100545.50;4973468;28;20511;-84
2020/12/15 11:22:35;;;;;;;51.47;33.22;;;;;;;8.29;100.00;100535.81;4972720;28;20068;-84